sensor_id;sensor_type;location;lat;lon;timestamp;pressure;altitude;pressure_sealevel;temperature;humidity
60920;BME280;59039;52.108;19.942;2023-04-10T00:00:45;101469.58;;;9.90;76.96
60920;BME280;59039;52.108;19.942;2023-04-10T00:03:12;101473.08;;;9.89;77.52
60920;BME280;59039;52.108;19.942;2023-04-10T00:05:40;101470.48;;;9.85;78.06
60920;BME280;59039;52.108;19.942;2023-04-10T00:08:21;101469.95;;;9.80;77.62
60920;BME280;59039;52.108;19.942;2023-04-10T00:11:07;101468.23;;;9.77;77.85
60920;BME280;59039;52.108;19.942;2023-04-10T00:13:35;101467.47;;;9.73;78.13
60920;BME280;59039;52.108;19.942;2023-04-10T00:19:11;101459.80;;;9.67;77.74
60920;BME280;59039;52.108;19.942;2023-04-10T00:21:36;101460.95;;;9.64;78.50
60920;BME280;59039;52.108;19.942;2023-04-10T00:24:04;101458.70;;;9.58;78.71
60920;BME280;59039;52.108;19.942;2023-04-10T00:26:34;101463.34;;;9.53;78.83
60920;BME280;59039;52.108;19.942;2023-04-10T00:29:03;101461.51;;;9.48;78.47
60920;BME280;59039;52.108;19.942;2023-04-10T00:32:03;101462.59;;;9.46;78.54
60920;BME280;59039;52.108;19.942;2023-04-10T00:34:30;101462.25;;;9.43;78.72
60920;BME280;59039;52.108;19.942;2023-04-10T00:36:58;101460.78;;;9.41;77.93
60920;BME280;59039;52.108;19.942;2023-04-10T00:42:05;101457.85;;;9.37;78.19
60920;BME280;59039;52.108;19.942;2023-04-10T00:44:54;101452.91;;;9.33;77.83
60920;BME280;59039;52.108;19.942;2023-04-10T00:47:20;101456.00;;;9.31;77.62
60920;BME280;59039;52.108;19.942;2023-04-10T00:49:45;101454.80;;;9.28;77.69
60920;BME280;59039;52.108;19.942;2023-04-10T00:52:14;101451.55;;;9.25;77.17
60920;BME280;59039;52.108;19.942;2023-04-10T00:54:42;101452.33;;;9.23;76.99
60920;BME280;59039;52.108;19.942;2023-04-10T00:57:13;101460.14;;;9.19;77.40
60920;BME280;59039;52.108;19.942;2023-04-10T00:59:38;101462.90;;;9.17;77.93
60920;BME280;59039;52.108;19.942;2023-04-10T01:02:10;101468.02;;;9.13;77.77
60920;BME280;59039;52.108;19.942;2023-04-10T01:04:36;101464.27;;;9.11;77.31
60920;BME280;59039;52.108;19.942;2023-04-10T01:07:24;101464.45;;;9.08;77.38
60920;BME280;59039;52.108;19.942;2023-04-10T01:13:24;101469.73;;;9.03;77.52
60920;BME280;59039;52.108;19.942;2023-04-10T01:16:18;101467.91;;;8.99;77.76
60920;BME280;59039;52.108;19.942;2023-04-10T01:19:04;101464.96;;;8.95;77.89
60920;BME280;59039;52.108;19.942;2023-04-10T01:21:35;101461.75;;;8.92;77.32
60920;BME280;59039;52.108;19.942;2023-04-10T01:24:14;101462.09;;;8.90;77.58
60920;BME280;59039;52.108;19.942;2023-04-10T01:29:46;101463.84;;;8.84;77.04
60920;BME280;59039;52.108;19.942;2023-04-10T01:32:29;101471.60;;;8.82;77.14
60920;BME280;59039;52.108;19.942;2023-04-10T01:34:59;101476.33;;;8.79;77.55
60920;BME280;59039;52.108;19.942;2023-04-10T01:37:55;101478.92;;;8.75;78.33
60920;BME280;59039;52.108;19.942;2023-04-10T01:40:25;101480.63;;;8.70;78.40
60920;BME280;59039;52.108;19.942;2023-04-10T01:43:15;101484.56;;;8.65;77.56
60920;BME280;59039;52.108;19.942;2023-04-10T01:45:43;101481.15;;;8.63;77.40
60920;BME280;59039;52.108;19.942;2023-04-10T01:48:10;101482.39;;;8.61;77.34
60920;BME280;59039;52.108;19.942;2023-04-10T01:51:02;101482.16;;;8.56;77.77
60920;BME280;59039;52.108;19.942;2023-04-10T01:53:37;101484.33;;;8.52;78.53
60920;BME280;59039;52.108;19.942;2023-04-10T01:56:03;101486.42;;;8.48;78.21
60920;BME280;59039;52.108;19.942;2023-04-10T02:01:20;101482.93;;;8.44;77.98
60920;BME280;59039;52.108;19.942;2023-04-10T02:03:49;101483.55;;;8.43;77.88
60920;BME280;59039;52.108;19.942;2023-04-10T02:09:25;101478.00;;;8.39;77.94
60920;BME280;59039;52.108;19.942;2023-04-10T02:12:01;101477.73;;;8.38;78.45
60920;BME280;59039;52.108;19.942;2023-04-10T02:14:32;101473.30;;;8.34;78.78
60920;BME280;59039;52.108;19.942;2023-04-10T02:17:11;101469.83;;;8.32;78.67
60920;BME280;59039;52.108;19.942;2023-04-10T02:19:41;101473.02;;;8.31;78.66
60920;BME280;59039;52.108;19.942;2023-04-10T02:22:07;101477.38;;;8.28;79.06
60920;BME280;59039;52.108;19.942;2023-04-10T02:24:33;101477.00;;;8.26;78.82
60920;BME280;59039;52.108;19.942;2023-04-10T02:27:02;101477.31;;;8.24;78.66
60920;BME280;59039;52.108;19.942;2023-04-10T02:29:30;101479.44;;;8.20;79.05
60920;BME280;59039;52.108;19.942;2023-04-10T02:31:56;101481.04;;;8.15;79.07
60920;BME280;59039;52.108;19.942;2023-04-10T02:34:34;101480.21;;;8.11;78.56
60920;BME280;59039;52.108;19.942;2023-04-10T02:37:03;101482.54;;;8.10;78.68
60920;BME280;59039;52.108;19.942;2023-04-10T02:39:28;101480.77;;;8.07;78.54
60920;BME280;59039;52.108;19.942;2023-04-10T02:42:07;101477.66;;;8.05;78.08
60920;BME280;59039;52.108;19.942;2023-04-10T02:44:36;101478.52;;;8.03;77.95
60920;BME280;59039;52.108;19.942;2023-04-10T02:49:42;101473.05;;;7.99;78.39
60920;BME280;59039;52.108;19.942;2023-04-10T02:52:10;101477.27;;;7.98;78.33
60920;BME280;59039;52.108;19.942;2023-04-10T02:54:36;101480.63;;;7.96;78.46
60920;BME280;59039;52.108;19.942;2023-04-10T02:57:04;101477.38;;;7.93;78.68
60920;BME280;59039;52.108;19.942;2023-04-10T02:59:32;101478.97;;;7.92;79.33
60920;BME280;59039;52.108;19.942;2023-04-10T03:02:03;101482.95;;;7.89;79.62
60920;BME280;59039;52.108;19.942;2023-04-10T03:04:31;101488.54;;;7.87;79.70
60920;BME280;59039;52.108;19.942;2023-04-10T03:06:56;101491.24;;;7.84;79.90
60920;BME280;59039;52.108;19.942;2023-04-10T03:09:22;101489.13;;;7.81;80.35
60920;BME280;59039;52.108;19.942;2023-04-10T03:11:53;101493.09;;;7.79;80.70
60920;BME280;59039;52.108;19.942;2023-04-10T03:14:18;101497.31;;;7.75;81.15
60920;BME280;59039;52.108;19.942;2023-04-10T03:16:47;101497.22;;;7.71;80.73
60920;BME280;59039;52.108;19.942;2023-04-10T03:19:20;101499.34;;;7.69;80.79
60920;BME280;59039;52.108;19.942;2023-04-10T03:21:48;101497.60;;;7.68;80.47
60920;BME280;59039;52.108;19.942;2023-04-10T03:24:26;101500.57;;;7.67;80.93
60920;BME280;59039;52.108;19.942;2023-04-10T03:26:51;101501.42;;;7.65;80.92
60920;BME280;59039;52.108;19.942;2023-04-10T03:29:40;101504.23;;;7.64;80.64
60920;BME280;59039;52.108;19.942;2023-04-10T03:32:28;101505.63;;;7.62;80.70
60920;BME280;59039;52.108;19.942;2023-04-10T03:34:59;101507.94;;;7.60;80.77
60920;BME280;59039;52.108;19.942;2023-04-10T03:37:25;101509.34;;;7.58;80.77
60920;BME280;59039;52.108;19.942;2023-04-10T03:40:02;101511.69;;;7.56;80.75
60920;BME280;59039;52.108;19.942;2023-04-10T03:42:28;101513.41;;;7.51;81.14
60920;BME280;59039;52.108;19.942;2023-04-10T03:48:18;101516.83;;;7.44;81.68
60920;BME280;59039;52.108;19.942;2023-04-10T03:50:48;101516.78;;;7.40;81.22
60920;BME280;59039;52.108;19.942;2023-04-10T03:53:14;101516.48;;;7.36;81.26
60920;BME280;59039;52.108;19.942;2023-04-10T03:55:52;101514.16;;;7.33;81.33
60920;BME280;59039;52.108;19.942;2023-04-10T03:58:40;101514.67;;;7.31;81.43
60920;BME280;59039;52.108;19.942;2023-04-10T04:01:16;101514.55;;;7.30;81.51
60920;BME280;59039;52.108;19.942;2023-04-10T04:06:29;101518.33;;;7.27;82.04
60920;BME280;59039;52.108;19.942;2023-04-10T04:09:15;101518.05;;;7.27;81.60
60920;BME280;59039;52.108;19.942;2023-04-10T04:11:43;101520.45;;;7.26;82.12
60920;BME280;59039;52.108;19.942;2023-04-10T04:14:14;101519.04;;;7.25;81.64
60920;BME280;59039;52.108;19.942;2023-04-10T04:17:20;101526.79;;;7.25;81.83
60920;BME280;59039;52.108;19.942;2023-04-10T04:19:48;101526.12;;;7.25;81.93
60920;BME280;59039;52.108;19.942;2023-04-10T04:22:13;101526.83;;;7.25;81.70
60920;BME280;59039;52.108;19.942;2023-04-10T04:24:44;101528.11;;;7.24;81.77
60920;BME280;59039;52.108;19.942;2023-04-10T04:30:08;101528.72;;;7.24;82.02
60920;BME280;59039;52.108;19.942;2023-04-10T04:32:36;101526.42;;;7.23;81.71
60920;BME280;59039;52.108;19.942;2023-04-10T04:35:04;101527.85;;;7.23;81.95
60920;BME280;59039;52.108;19.942;2023-04-10T04:40:11;101536.95;;;7.24;82.02
60920;BME280;59039;52.108;19.942;2023-04-10T04:42:37;101538.59;;;7.24;81.82
60920;BME280;59039;52.108;19.942;2023-04-10T04:45:26;101538.40;;;7.24;81.67
60920;BME280;59039;52.108;19.942;2023-04-10T04:47:54;101546.84;;;7.25;82.07
60920;BME280;59039;52.108;19.942;2023-04-10T04:50:28;101550.95;;;7.25;82.04
60920;BME280;59039;52.108;19.942;2023-04-10T04:55:52;101556.51;;;7.28;82.01
60920;BME280;59039;52.108;19.942;2023-04-10T04:58:31;101555.95;;;7.28;81.80
60920;BME280;59039;52.108;19.942;2023-04-10T05:00:58;101555.76;;;7.28;81.83
60920;BME280;59039;52.108;19.942;2023-04-10T05:03:24;101557.30;;;7.30;81.96
60920;BME280;59039;52.108;19.942;2023-04-10T05:05:55;101553.06;;;7.31;81.92
60920;BME280;59039;52.108;19.942;2023-04-10T05:08:21;101556.44;;;7.32;82.09
60920;BME280;59039;52.108;19.942;2023-04-10T05:10:50;101559.23;;;7.33;82.11
60920;BME280;59039;52.108;19.942;2023-04-10T05:18:35;101566.27;;;7.39;82.63
60920;BME280;59039;52.108;19.942;2023-04-10T05:21:03;101570.76;;;7.41;82.42
60920;BME280;59039;52.108;19.942;2023-04-10T05:23:37;101577.53;;;7.42;82.80
60920;BME280;59039;52.108;19.942;2023-04-10T05:26:08;101579.36;;;7.45;82.77
60920;BME280;59039;52.108;19.942;2023-04-10T05:28:46;101582.58;;;7.47;82.62
60920;BME280;59039;52.108;19.942;2023-04-10T05:31:34;101583.47;;;7.50;82.54
60920;BME280;59039;52.108;19.942;2023-04-10T05:36:43;101591.27;;;7.55;82.79
60920;BME280;59039;52.108;19.942;2023-04-10T05:39:12;101587.24;;;7.59;82.71
60920;BME280;59039;52.108;19.942;2023-04-10T05:42:00;101586.91;;;7.63;82.62
60920;BME280;59039;52.108;19.942;2023-04-10T05:44:51;101585.38;;;7.67;82.93
60920;BME280;59039;52.108;19.942;2023-04-10T05:47:19;101588.39;;;7.73;83.21
60920;BME280;59039;52.108;19.942;2023-04-10T05:49:47;101586.45;;;7.78;83.12
60920;BME280;59039;52.108;19.942;2023-04-10T05:52:13;101584.05;;;7.83;82.89
60920;BME280;59039;52.108;19.942;2023-04-10T05:54:48;101586.10;;;7.87;83.00
60920;BME280;59039;52.108;19.942;2023-04-10T05:57:14;101589.06;;;7.91;83.09
60920;BME280;59039;52.108;19.942;2023-04-10T05:59:42;101589.75;;;7.95;83.23
60920;BME280;59039;52.108;19.942;2023-04-10T06:02:23;101587.49;;;7.98;83.18
60920;BME280;59039;52.108;19.942;2023-04-10T06:04:50;101587.27;;;8.04;83.25
60920;BME280;59039;52.108;19.942;2023-04-10T06:07:18;101588.88;;;8.09;83.38
60920;BME280;59039;52.108;19.942;2023-04-10T06:09:46;101585.69;;;8.13;83.21
60920;BME280;59039;52.108;19.942;2023-04-10T06:12:35;101583.54;;;8.19;83.12
60920;BME280;59039;52.108;19.942;2023-04-10T06:15:23;101580.45;;;8.24;83.27
60920;BME280;59039;52.108;19.942;2023-04-10T06:17:51;101578.09;;;8.29;83.25
60920;BME280;59039;52.108;19.942;2023-04-10T06:20:22;101576.56;;;8.32;83.37
60920;BME280;59039;52.108;19.942;2023-04-10T06:22:48;101574.48;;;8.39;83.39
60920;BME280;59039;52.108;19.942;2023-04-10T06:25:16;101574.98;;;8.47;83.26
60920;BME280;59039;52.108;19.942;2023-04-10T06:27:46;101570.19;;;8.55;83.14
60920;BME280;59039;52.108;19.942;2023-04-10T06:30:14;101568.71;;;8.63;82.94
60920;BME280;59039;52.108;19.942;2023-04-10T06:32:40;101573.27;;;8.72;82.90
60920;BME280;59039;52.108;19.942;2023-04-10T06:35:06;101570.92;;;8.80;82.82
60920;BME280;59039;52.108;19.942;2023-04-10T06:37:31;101576.59;;;8.86;82.44
60920;BME280;59039;52.108;19.942;2023-04-10T06:40:26;101576.05;;;8.93;82.57
60920;BME280;59039;52.108;19.942;2023-04-10T06:43:15;101580.55;;;8.98;82.51
60920;BME280;59039;52.108;19.942;2023-04-10T06:45:43;101582.75;;;9.05;82.31
60920;BME280;59039;52.108;19.942;2023-04-10T06:48:09;101585.89;;;9.11;82.06
60920;BME280;59039;52.108;19.942;2023-04-10T06:53:36;101585.77;;;9.20;81.83
60920;BME280;59039;52.108;19.942;2023-04-10T06:58:42;101587.61;;;9.31;81.95
60920;BME280;59039;52.108;19.942;2023-04-10T07:01:07;101591.08;;;9.36;81.80
60920;BME280;59039;52.108;19.942;2023-04-10T07:03:35;101593.11;;;9.40;81.87
60920;BME280;59039;52.108;19.942;2023-04-10T07:06:21;101595.70;;;9.44;81.94
60920;BME280;59039;52.108;19.942;2023-04-10T07:09:20;101594.11;;;9.51;81.72
60920;BME280;59039;52.108;19.942;2023-04-10T07:11:44;101588.16;;;9.55;81.89
60920;BME280;59039;52.108;19.942;2023-04-10T07:14:31;101586.83;;;9.60;81.88
60920;BME280;59039;52.108;19.942;2023-04-10T07:16:56;101585.61;;;9.67;81.94
60920;BME280;59039;52.108;19.942;2023-04-10T07:19:21;101585.28;;;9.75;81.81
60920;BME280;59039;52.108;19.942;2023-04-10T07:21:50;101589.30;;;9.84;82.07
60920;BME280;59039;52.108;19.942;2023-04-10T07:24:29;101589.65;;;9.91;82.02
60920;BME280;59039;52.108;19.942;2023-04-10T07:29:54;101588.50;;;10.08;81.83
60920;BME280;59039;52.108;19.942;2023-04-10T07:32:30;101585.27;;;10.14;81.84
60920;BME280;59039;52.108;19.942;2023-04-10T07:34:55;101586.75;;;10.21;81.71
60920;BME280;59039;52.108;19.942;2023-04-10T07:37:23;101589.27;;;10.28;81.57
60920;BME280;59039;52.108;19.942;2023-04-10T07:39:51;101587.26;;;10.35;81.46
60920;BME280;59039;52.108;19.942;2023-04-10T07:42:30;101590.52;;;10.41;81.35
60920;BME280;59039;52.108;19.942;2023-04-10T07:44:56;101591.80;;;10.48;81.29
60920;BME280;59039;52.108;19.942;2023-04-10T07:47:21;101591.48;;;10.52;81.31
60920;BME280;59039;52.108;19.942;2023-04-10T07:49:46;101598.11;;;10.60;81.10
60920;BME280;59039;52.108;19.942;2023-04-10T07:52:12;101595.81;;;10.68;80.93
60920;BME280;59039;52.108;19.942;2023-04-10T07:54:37;101597.02;;;10.75;81.02
60920;BME280;59039;52.108;19.942;2023-04-10T07:57:03;101593.21;;;10.81;80.96
60920;BME280;59039;52.108;19.942;2023-04-10T07:59:28;101591.27;;;10.88;81.04
60920;BME280;59039;52.108;19.942;2023-04-10T08:01:54;101588.23;;;10.94;80.88
60920;BME280;59039;52.108;19.942;2023-04-10T08:04:19;101582.47;;;11.00;80.59
60920;BME280;59039;52.108;19.942;2023-04-10T08:06:44;101582.45;;;11.06;80.78
60920;BME280;59039;52.108;19.942;2023-04-10T08:09:10;101579.19;;;11.13;80.36
60920;BME280;59039;52.108;19.942;2023-04-10T08:11:48;101576.20;;;11.18;80.41
60920;BME280;59039;52.108;19.942;2023-04-10T08:14:19;101574.14;;;11.23;80.05
60920;BME280;59039;52.108;19.942;2023-04-10T08:16:47;101573.30;;;11.28;80.23
60920;BME280;59039;52.108;19.942;2023-04-10T08:19:13;101570.96;;;11.33;79.90
60920;BME280;59039;52.108;19.942;2023-04-10T08:21:49;101573.00;;;11.38;79.85
60920;BME280;59039;52.108;19.942;2023-04-10T08:24:35;101570.10;;;11.43;79.83
60920;BME280;59039;52.108;19.942;2023-04-10T08:27:05;101572.65;;;11.49;79.71
60920;BME280;59039;52.108;19.942;2023-04-10T08:55:04;101552.70;;;13.24;75.11
60920;BME280;59039;52.108;19.942;2023-04-10T08:57:32;101550.88;;;13.40;75.02
60920;BME280;59039;52.108;19.942;2023-04-10T08:59:58;101547.12;;;13.37;74.80
60920;BME280;59039;52.108;19.942;2023-04-10T09:02:27;101551.33;;;13.37;75.24
60920;BME280;59039;52.108;19.942;2023-04-10T09:05:04;101548.42;;;13.37;75.32
60920;BME280;59039;52.108;19.942;2023-04-10T09:07:33;101545.69;;;13.37;75.40
60920;BME280;59039;52.108;19.942;2023-04-10T09:10:01;101544.89;;;13.38;75.34
60920;BME280;59039;52.108;19.942;2023-04-10T09:12:42;101542.98;;;13.41;75.85
60920;BME280;59039;52.108;19.942;2023-04-10T09:15:17;101541.34;;;13.45;76.03
60920;BME280;59039;52.108;19.942;2023-04-10T09:18:00;101538.64;;;13.50;75.68
60920;BME280;59039;52.108;19.942;2023-04-10T09:23:21;101536.10;;;13.57;75.20
60920;BME280;59039;52.108;19.942;2023-04-10T09:25:46;101534.77;;;13.66;75.26
60920;BME280;59039;52.108;19.942;2023-04-10T09:28:14;101532.59;;;13.75;75.16
60920;BME280;59039;52.108;19.942;2023-04-10T09:31:46;101530.11;;;13.82;74.30
60920;BME280;59039;52.108;19.942;2023-04-10T09:36:12;101533.05;;;13.93;73.09
60920;BME280;59039;52.108;19.942;2023-04-10T09:38:40;101524.40;;;13.94;72.64
60920;BME280;59039;52.108;19.942;2023-04-10T09:41:06;101520.77;;;13.95;72.58
60920;BME280;59039;52.108;19.942;2023-04-10T09:43:37;101517.08;;;13.98;72.31
60920;BME280;59039;52.108;19.942;2023-04-10T09:46:02;101512.27;;;14.00;72.30
60920;BME280;59039;52.108;19.942;2023-04-10T09:48:31;101507.27;;;14.03;72.28
60920;BME280;59039;52.108;19.942;2023-04-10T09:50:58;101512.45;;;14.04;70.50
60920;BME280;59039;52.108;19.942;2023-04-10T09:53:52;101506.71;;;14.05;70.43
60920;BME280;59039;52.108;19.942;2023-04-10T09:59:00;101506.79;;;14.03;69.14
60920;BME280;59039;52.108;19.942;2023-04-10T10:01:29;101503.55;;;14.00;69.05
60920;BME280;59039;52.108;19.942;2023-04-10T10:03:57;101499.84;;;13.99;69.10
60920;BME280;59039;52.108;19.942;2023-04-10T10:06:25;101498.34;;;14.01;69.62
60920;BME280;59039;52.108;19.942;2023-04-10T10:08:51;101498.35;;;14.05;70.47
60920;BME280;59039;52.108;19.942;2023-04-10T10:11:23;101495.42;;;14.09;70.37
60920;BME280;59039;52.108;19.942;2023-04-10T10:13:50;101493.04;;;14.14;69.56
60920;BME280;59039;52.108;19.942;2023-04-10T10:16:20;101493.51;;;14.28;70.22
60920;BME280;59039;52.108;19.942;2023-04-10T10:21:32;101484.17;;;14.63;67.74
60920;BME280;59039;52.108;19.942;2023-04-10T10:24:01;101482.46;;;14.84;68.12
60920;BME280;59039;52.108;19.942;2023-04-10T10:26:34;101480.67;;;14.96;66.87
60920;BME280;59039;52.108;19.942;2023-04-10T10:29:04;101479.16;;;15.09;65.86
60920;BME280;59039;52.108;19.942;2023-04-10T10:31:38;101475.67;;;15.23;65.81
60920;BME280;59039;52.108;19.942;2023-04-10T10:34:04;101470.26;;;15.31;65.97
60920;BME280;59039;52.108;19.942;2023-04-10T10:36:36;101472.17;;;15.36;65.41
60920;BME280;59039;52.108;19.942;2023-04-10T10:39:16;101468.41;;;15.37;64.51
60920;BME280;59039;52.108;19.942;2023-04-10T10:41:48;101463.27;;;15.37;64.34
60920;BME280;59039;52.108;19.942;2023-04-10T10:44:22;101460.87;;;15.34;62.96
60920;BME280;59039;52.108;19.942;2023-04-10T10:47:06;101456.30;;;15.30;63.90
60920;BME280;59039;52.108;19.942;2023-04-10T10:50:05;101451.14;;;15.29;63.88
60920;BME280;59039;52.108;19.942;2023-04-10T10:53:14;101451.28;;;15.29;65.61
60920;BME280;59039;52.108;19.942;2023-04-10T10:55:35;101446.55;;;15.27;65.73
60920;BME280;59039;52.108;19.942;2023-04-10T10:58:05;101447.44;;;15.29;65.84
60920;BME280;59039;52.108;19.942;2023-04-10T11:05:57;101436.57;;;15.37;64.60
60920;BME280;59039;52.108;19.942;2023-04-10T11:11:01;101426.77;;;15.40;63.70
60920;BME280;59039;52.108;19.942;2023-04-10T11:13:27;101428.43;;;15.42;62.37
60920;BME280;59039;52.108;19.942;2023-04-10T11:16:13;101424.05;;;15.45;63.48
60920;BME280;59039;52.108;19.942;2023-04-10T11:21:11;101421.07;;;15.49;62.28
60920;BME280;59039;52.108;19.942;2023-04-10T11:28:58;101411.55;;;15.60;61.56
60920;BME280;59039;52.108;19.942;2023-04-10T11:31:24;101409.52;;;15.63;61.88
60920;BME280;59039;52.108;19.942;2023-04-10T11:36:42;101406.31;;;15.64;60.76
60920;BME280;59039;52.108;19.942;2023-04-10T11:39:10;101405.95;;;15.61;60.89
60920;BME280;59039;52.108;19.942;2023-04-10T11:41:54;101405.79;;;15.59;62.01
60920;BME280;59039;52.108;19.942;2023-04-10T11:47:13;101402.23;;;15.55;60.37
60920;BME280;59039;52.108;19.942;2023-04-10T11:49:40;101399.16;;;15.51;60.19
60920;BME280;59039;52.108;19.942;2023-04-10T11:52:27;101390.41;;;15.47;60.58
60920;BME280;59039;52.108;19.942;2023-04-10T11:54:52;101385.12;;;15.44;60.72
60920;BME280;59039;52.108;19.942;2023-04-10T11:57:18;101384.98;;;15.39;61.14
60920;BME280;59039;52.108;19.942;2023-04-10T11:59:49;101383.44;;;15.35;59.83
60920;BME280;59039;52.108;19.942;2023-04-10T12:02:16;101382.18;;;15.32;59.69
60920;BME280;59039;52.108;19.942;2023-04-10T12:04:56;101381.04;;;15.29;60.48
60920;BME280;59039;52.108;19.942;2023-04-10T12:07:23;101380.98;;;15.28;60.93
60920;BME280;59039;52.108;19.942;2023-04-10T12:09:57;101378.20;;;15.24;60.49
60920;BME280;59039;52.108;19.942;2023-04-10T12:12:35;101373.17;;;15.22;60.53
60920;BME280;59039;52.108;19.942;2023-04-10T12:15:13;101370.02;;;15.19;60.91
60920;BME280;59039;52.108;19.942;2023-04-10T12:17:50;101366.17;;;15.17;61.56
60920;BME280;59039;52.108;19.942;2023-04-10T12:20:19;101360.52;;;15.17;61.64
60920;BME280;59039;52.108;19.942;2023-04-10T12:22:47;101360.68;;;15.17;61.89
60920;BME280;59039;52.108;19.942;2023-04-10T12:25:14;101353.80;;;15.17;61.45
60920;BME280;59039;52.108;19.942;2023-04-10T12:27:47;101349.41;;;15.17;61.74
60920;BME280;59039;52.108;19.942;2023-04-10T12:30:15;101342.65;;;15.17;61.88
60920;BME280;59039;52.108;19.942;2023-04-10T12:32:50;101336.27;;;15.19;62.54
60920;BME280;59039;52.108;19.942;2023-04-10T12:35:18;101330.42;;;15.22;61.91
60920;BME280;59039;52.108;19.942;2023-04-10T12:37:51;101329.52;;;15.26;62.28
60920;BME280;59039;52.108;19.942;2023-04-10T12:40:17;101327.80;;;15.32;62.14
60920;BME280;59039;52.108;19.942;2023-04-10T12:42:43;101321.08;;;15.36;62.16
60920;BME280;59039;52.108;19.942;2023-04-10T12:45:12;101315.23;;;15.41;61.62
60920;BME280;59039;52.108;19.942;2023-04-10T12:47:52;101310.38;;;15.47;59.81
60920;BME280;59039;52.108;19.942;2023-04-10T12:50:23;101313.84;;;15.55;59.66
60920;BME280;59039;52.108;19.942;2023-04-10T12:53:08;101307.35;;;15.60;59.72
60920;BME280;59039;52.108;19.942;2023-04-10T12:58:22;101299.98;;;15.68;59.40
60920;BME280;59039;52.108;19.942;2023-04-10T13:01:01;101299.56;;;15.72;59.58
60920;BME280;59039;52.108;19.942;2023-04-10T13:03:32;101291.73;;;15.75;59.42
60920;BME280;59039;52.108;19.942;2023-04-10T13:06:01;101289.10;;;15.79;58.59
60920;BME280;59039;52.108;19.942;2023-04-10T13:08:26;101287.60;;;15.83;59.12
60920;BME280;59039;52.108;19.942;2023-04-10T13:10:54;101285.77;;;15.86;58.78
60920;BME280;59039;52.108;19.942;2023-04-10T13:13:20;101280.14;;;15.89;57.62
60920;BME280;59039;52.108;19.942;2023-04-10T13:15:48;101278.51;;;15.92;58.09
60920;BME280;59039;52.108;19.942;2023-04-10T13:18:17;101275.87;;;15.95;56.37
60920;BME280;59039;52.108;19.942;2023-04-10T13:20:42;101272.45;;;15.98;56.70
60920;BME280;59039;52.108;19.942;2023-04-10T13:23:10;101264.77;;;16.01;57.33
60920;BME280;59039;52.108;19.942;2023-04-10T13:25:40;101262.98;;;16.02;55.20
60920;BME280;59039;52.108;19.942;2023-04-10T13:28:08;101261.00;;;16.03;55.55
60920;BME280;59039;52.108;19.942;2023-04-10T13:30:37;101257.98;;;16.06;56.20
60920;BME280;59039;52.108;19.942;2023-04-10T13:33:07;101255.77;;;16.08;55.04
60920;BME280;59039;52.108;19.942;2023-04-10T13:35:32;101256.15;;;16.10;55.32
60920;BME280;59039;52.108;19.942;2023-04-10T13:37:58;101255.39;;;16.11;55.29
60920;BME280;59039;52.108;19.942;2023-04-10T13:40:24;101253.98;;;16.13;55.10
60920;BME280;59039;52.108;19.942;2023-04-10T13:43:10;101249.09;;;16.14;55.80
60920;BME280;59039;52.108;19.942;2023-04-10T13:45:35;101247.21;;;16.14;56.09
60920;BME280;59039;52.108;19.942;2023-04-10T13:48:00;101244.59;;;16.13;54.95
60920;BME280;59039;52.108;19.942;2023-04-10T13:50:28;101243.42;;;16.12;55.65
60920;BME280;59039;52.108;19.942;2023-04-10T13:52:57;101242.13;;;16.11;56.12
60920;BME280;59039;52.108;19.942;2023-04-10T13:55:23;101244.19;;;16.10;56.21
60920;BME280;59039;52.108;19.942;2023-04-10T14:00:31;101235.92;;;16.11;55.51
60920;BME280;59039;52.108;19.942;2023-04-10T14:02:56;101235.93;;;16.11;54.82
60920;BME280;59039;52.108;19.942;2023-04-10T14:05:22;101236.38;;;16.10;55.42
60920;BME280;59039;52.108;19.942;2023-04-10T14:07:47;101232.20;;;16.10;54.76
60920;BME280;59039;52.108;19.942;2023-04-10T14:10:12;101227.84;;;16.09;54.89
60920;BME280;59039;52.108;19.942;2023-04-10T14:12:38;101222.35;;;16.09;55.13
60920;BME280;59039;52.108;19.942;2023-04-10T14:15:14;101221.63;;;16.11;55.07
60920;BME280;59039;52.108;19.942;2023-04-10T14:17:41;101217.63;;;16.12;55.51
60920;BME280;59039;52.108;19.942;2023-04-10T14:20:07;101213.30;;;16.13;54.29
60920;BME280;59039;52.108;19.942;2023-04-10T14:22:32;101209.85;;;16.15;55.02
60920;BME280;59039;52.108;19.942;2023-04-10T14:25:00;101210.17;;;16.17;55.28
60920;BME280;59039;52.108;19.942;2023-04-10T14:27:28;101208.35;;;16.18;54.43
60920;BME280;59039;52.108;19.942;2023-04-10T14:29:56;101208.29;;;16.19;54.30
60920;BME280;59039;52.108;19.942;2023-04-10T14:32:24;101210.92;;;16.21;55.19
60920;BME280;59039;52.108;19.942;2023-04-10T14:34:49;101204.47;;;16.23;55.20
60920;BME280;59039;52.108;19.942;2023-04-10T14:37:26;101203.11;;;16.24;54.87
60920;BME280;59039;52.108;19.942;2023-04-10T14:39:57;101205.03;;;16.25;55.75
60920;BME280;59039;52.108;19.942;2023-04-10T14:42:33;101199.98;;;16.26;54.95
60920;BME280;59039;52.108;19.942;2023-04-10T14:44:58;101194.77;;;16.27;53.94
60920;BME280;59039;52.108;19.942;2023-04-10T14:47:26;101197.45;;;16.27;54.72
60920;BME280;59039;52.108;19.942;2023-04-10T14:49:51;101197.65;;;16.27;54.32
60920;BME280;59039;52.108;19.942;2023-04-10T14:52:20;101193.81;;;16.27;54.31
60920;BME280;59039;52.108;19.942;2023-04-10T14:54:48;101188.72;;;16.27;53.52
60920;BME280;59039;52.108;19.942;2023-04-10T14:57:14;101186.06;;;16.28;53.36
60920;BME280;59039;52.108;19.942;2023-04-10T14:59:40;101183.25;;;16.28;53.81
60920;BME280;59039;52.108;19.942;2023-04-10T15:02:05;101179.89;;;16.27;53.97